Vinton, Texas
Current Conditions -  °F | °C
As of 12:58 PM on Tuesday 21 Oct 2014 (Local Time) from KBIF Reporting Station
Scattered Clouds Scattered Clouds  
Wind Chill: 69°   Ceiling: Unl
Heat Index: 69°   Visibility: 10mi
Dew Point: 54°   Wind: 2mph
Humidity: 59%   Direction: NA
Pressure: 30.07"   Gusts: NA
Location:  31.987°N, 106.594°W
Report Text: KBIF 211858Z VRB02KT 10SM FEW032 SCT100 21/12 A3007 RMK AO2A SLP143 T02050123
Loading
Personal Weather Stations






























Interactive Weather Map
Tropical Storm Tracking
New forecast layout! Learn more

10-Day Weather Forecast

Advertisements
Track Severe Weather on mobile